createdAt,value
2022-09-20T00:00:03.050Z,11.58
2022-09-20T00:02:34.356Z,11.50
2022-09-20T00:05:07.535Z,11.43
2022-09-20T00:07:39.282Z,11.37
2022-09-20T00:10:14.640Z,11.52
2022-09-20T00:12:46.369Z,11.51
2022-09-20T00:15:17.899Z,11.44
2022-09-20T00:17:49.086Z,11.35
2022-09-20T00:20:20.499Z,11.32
2022-09-20T00:22:52.248Z,11.25
2022-09-20T00:25:23.891Z,11.21
2022-09-20T00:27:55.190Z,11.12
2022-09-20T00:30:26.245Z,11.11
2022-09-20T00:32:57.528Z,11.17
2022-09-20T00:35:30.193Z,11.24
2022-09-20T00:38:01.500Z,11.38
2022-09-20T00:40:33.082Z,11.43
2022-09-20T00:43:04.452Z,11.51
2022-09-20T00:45:37.276Z,11.37
2022-09-20T00:48:13.537Z,11.34
2022-09-20T00:50:50.466Z,11.33
2022-09-20T00:53:26.482Z,11.35
2022-09-20T00:56:01.334Z,11.33
2022-09-20T00:58:36.580Z,11.23
2022-09-20T01:01:08.309Z,11.20
2022-09-20T01:03:41.224Z,11.27
2022-09-20T01:06:16.988Z,11.36
2022-09-20T01:08:53.136Z,11.34
2022-09-20T01:11:24.558Z,11.42
2022-09-20T01:13:55.989Z,11.24
2022-09-20T01:16:29.255Z,11.10
2022-09-20T01:19:04.080Z,11.05
2022-09-20T01:21:35.940Z,11.16
2022-09-20T01:24:15.976Z,11.25
2022-09-20T01:27:14.975Z,11.19
2022-09-20T01:30:05.010Z,11.43
2022-09-20T01:32:45.317Z,11.49
2022-09-20T01:35:21.557Z,11.34
2022-09-20T01:38:07.574Z,11.19
2022-09-20T01:40:48.179Z,11.08
2022-09-20T01:43:28.656Z,11.15
2022-09-20T01:46:06.269Z,11.07
2022-09-20T01:48:41.923Z,11.06
2022-09-20T01:51:49.319Z,11.07
2022-09-20T01:54:50.309Z,11.25
2022-09-20T01:57:52.036Z,11.19
2022-09-20T02:00:25.490Z,11.05
2022-09-20T02:03:29.501Z,10.86
2022-09-20T02:06:21.040Z,10.80
2022-09-20T02:09:28.379Z,10.91
2022-09-20T02:12:25.310Z,10.91
2022-09-20T02:15:07.358Z,10.90
2022-09-20T02:17:50.071Z,11.00
2022-09-20T02:20:33.385Z,11.02
2022-09-20T02:23:23.121Z,10.97
2022-09-20T02:26:11.972Z,10.93
2022-09-20T02:29:03.620Z,10.82
2022-09-20T02:31:52.559Z,10.80
2022-09-20T02:34:56.986Z,10.71
2022-09-20T02:37:49.754Z,10.62
2022-09-20T02:40:39.721Z,10.65
2022-09-20T02:43:23.006Z,10.74
2022-09-20T02:46:03.060Z,10.76
2022-09-20T02:48:44.991Z,10.81
2022-09-20T02:51:23.562Z,10.74
2022-09-20T02:54:06.131Z,10.74
2022-09-20T02:56:44.423Z,10.83
2022-09-20T02:59:32.772Z,10.91
2022-09-20T03:02:16.247Z,10.81
2022-09-20T03:05:03.510Z,10.82
2022-09-20T03:07:41.392Z,10.83
2022-09-20T03:10:20.405Z,10.84
2022-09-20T03:13:07.803Z,10.85
2022-09-20T03:15:50.151Z,10.82
2022-09-20T03:18:31.134Z,10.78
2022-09-20T03:21:12.976Z,10.73
2022-09-20T03:23:56.275Z,10.62
2022-09-20T03:26:43.924Z,10.69
2022-09-20T03:29:30.624Z,10.73
2022-09-20T03:32:22.891Z,10.78
2022-09-20T03:35:08.757Z,10.88
2022-09-20T03:38:04.273Z,10.86
2022-09-20T03:40:53.723Z,10.86
2022-09-20T03:43:39.462Z,10.73
2022-09-20T03:46:20.122Z,10.60
2022-09-20T03:49:11.939Z,10.64
2022-09-20T03:51:56.012Z,10.67
2022-09-20T03:54:45.443Z,10.70
2022-09-20T03:57:43.418Z,10.73
2022-09-20T04:00:37.440Z,10.83
2022-09-20T04:03:24.262Z,10.85
2022-09-20T04:06:11.120Z,10.99
2022-09-20T04:09:02.460Z,10.94
2022-09-20T04:11:42.931Z,10.95
2022-09-20T04:14:19.641Z,10.97
2022-09-20T04:16:57.145Z,10.96
2022-09-20T04:19:35.141Z,10.89
2022-09-20T04:22:07.871Z,10.84
2022-09-20T04:24:47.893Z,10.78
2022-09-20T04:27:25.241Z,10.77
2022-09-20T04:30:05.700Z,10.71
2022-09-20T04:32:42.458Z,10.76
2022-09-20T04:35:44.156Z,10.70
2022-09-20T04:38:18.874Z,10.72
2022-09-20T04:40:58.648Z,10.67
2022-09-20T04:44:06.743Z,10.63
2022-09-20T04:47:06.229Z,10.73
2022-09-20T04:50:20.924Z,10.86
2022-09-20T04:53:25.085Z,10.91
2022-09-20T04:56:02.450Z,10.90
2022-09-20T04:58:49.062Z,10.85
2022-09-20T05:02:03.702Z,10.89
2022-09-20T05:05:16.334Z,10.97
2022-09-20T05:08:18.099Z,10.98
2022-09-20T05:11:30.751Z,10.94
2022-09-20T05:17:20.696Z,11.04
2022-09-20T05:20:24.380Z,11.11
2022-09-20T05:23:11.489Z,11.15
2022-09-20T05:26:08.857Z,11.21
2022-09-20T05:28:51.230Z,11.13
2022-09-20T05:31:32.037Z,11.12
2022-09-20T05:34:11.879Z,11.12
2022-09-20T05:36:55.695Z,11.11
2022-09-20T05:39:38.134Z,11.07
2022-09-20T05:42:19.280Z,11.12
2022-09-20T05:45:09.152Z,11.25
2022-09-20T05:47:48.624Z,11.29
2022-09-20T05:50:35.678Z,11.19
2022-09-20T05:53:47.929Z,11.29
2022-09-20T05:56:28.310Z,11.44
2022-09-20T05:59:17.469Z,11.39
2022-09-20T06:02:00.562Z,11.52
2022-09-20T06:04:40.105Z,11.64
2022-09-20T06:07:23.240Z,11.53
2022-09-20T06:10:23.267Z,11.52
2022-09-20T06:13:02.083Z,11.51
2022-09-20T06:15:47.100Z,11.62
2022-09-20T06:18:28.838Z,11.85
2022-09-20T06:21:11.512Z,11.98
2022-09-20T06:23:42.789Z,12.03
2022-09-20T06:26:19.198Z,12.14
2022-09-20T06:28:58.212Z,12.09
2022-09-20T06:31:30.284Z,12.15
2022-09-20T06:34:06.012Z,12.24
2022-09-20T06:37:05.162Z,12.04
2022-09-20T06:40:01.746Z,12.08
2022-09-20T06:42:33.528Z,12.04
2022-09-20T06:45:05.294Z,11.92
2022-09-20T06:47:38.885Z,11.81
2022-09-20T06:50:16.710Z,11.71
2022-09-20T06:52:49.552Z,11.81
2022-09-20T06:55:29.424Z,11.93
2022-09-20T06:58:01.355Z,11.86
2022-09-20T07:00:33.425Z,11.81
2022-09-20T07:03:05.610Z,11.88
2022-09-20T07:05:39.282Z,11.92
2022-09-20T07:08:10.946Z,12.02
2022-09-20T07:10:43.665Z,12.02
2022-09-20T07:13:15.234Z,12.23
2022-09-20T07:15:46.668Z,12.35
2022-09-20T07:18:18.197Z,12.55
2022-09-20T07:20:49.657Z,12.59
2022-09-20T07:23:20.881Z,12.51
2022-09-20T07:25:52.336Z,12.59
2022-09-20T07:28:23.521Z,12.69
2022-09-20T07:30:54.838Z,12.77
2022-09-20T07:33:26.239Z,12.73
2022-09-20T07:35:58.226Z,12.80
2022-09-20T07:38:29.653Z,12.99
2022-09-20T07:41:02.837Z,13.20
2022-09-20T07:43:34.793Z,13.10
2022-09-20T07:46:07.381Z,13.10
2022-09-20T07:48:38.971Z,13.21
2022-09-20T07:51:13.029Z,13.20
2022-09-20T07:53:44.594Z,13.09
2022-09-20T07:56:19.776Z,13.22
2022-09-20T07:58:52.551Z,13.37
2022-09-20T08:01:23.844Z,13.36
2022-09-20T08:03:57.368Z,13.41
2022-09-20T08:06:28.839Z,13.38
2022-09-20T08:09:00.038Z,13.44
2022-09-20T08:11:31.984Z,13.39
2022-09-20T08:14:05.723Z,13.40
2022-09-20T08:16:43.248Z,13.49
2022-09-20T08:19:18.751Z,13.57
2022-09-20T08:21:50.446Z,13.64
2022-09-20T08:24:21.771Z,13.58
2022-09-20T08:26:52.931Z,13.52
2022-09-20T08:29:24.430Z,13.40
2022-09-20T08:31:58.426Z,13.45
2022-09-20T08:34:29.956Z,13.41
2022-09-20T08:37:01.124Z,13.42
2022-09-20T08:42:33.848Z,13.44
2022-09-20T08:45:22.203Z,13.44
2022-09-20T08:47:58.871Z,13.32
2022-09-20T08:50:30.776Z,13.30
2022-09-20T08:53:05.470Z,13.27
2022-09-20T08:55:36.869Z,13.32
2022-09-20T08:58:12.037Z,13.45
2022-09-20T09:00:45.941Z,13.64
2022-09-20T09:03:19.298Z,13.75
2022-09-20T09:05:53.080Z,13.67
2022-09-20T09:08:27.601Z,13.68
2022-09-20T09:11:08.763Z,13.71
2022-09-20T09:13:48.917Z,13.67
2022-09-20T09:16:27.217Z,13.63
2022-09-20T09:19:20.119Z,13.74
2022-09-20T09:21:51.549Z,13.82
2022-09-20T09:24:25.887Z,13.89
2022-09-20T09:27:10.526Z,14.10
2022-09-20T09:29:53.142Z,14.26
2022-09-20T09:32:29.280Z,14.36
2022-09-20T09:35:23.364Z,14.59
2022-09-20T09:37:59.526Z,14.56
2022-09-20T09:40:32.462Z,14.57
2022-09-20T09:43:05.171Z,14.60
2022-09-20T09:45:38.845Z,14.60
2022-09-20T09:48:24.416Z,14.57
2022-09-20T09:51:11.336Z,14.73
2022-09-20T09:53:43.623Z,14.98
2022-09-20T09:56:27.547Z,15.14
2022-09-20T09:59:20.666Z,15.29
2022-09-20T10:02:00.111Z,15.44
2022-09-20T10:04:37.946Z,15.60
2022-09-20T10:07:16.006Z,15.80
2022-09-20T10:10:07.745Z,15.91
2022-09-20T10:12:56.958Z,15.93
2022-09-20T10:15:44.930Z,16.04
2022-09-20T10:18:36.811Z,16.00
2022-09-20T10:21:19.905Z,16.06
2022-09-20T10:24:04.485Z,16.14
2022-09-20T10:26:45.468Z,16.12
2022-09-20T10:29:29.274Z,15.94
2022-09-20T10:32:14.060Z,15.84
2022-09-20T10:35:06.440Z,16.07
2022-09-20T10:37:49.479Z,16.19
2022-09-20T10:40:51.752Z,16.17
2022-09-20T10:43:42.132Z,16.15
2022-09-20T10:46:38.250Z,16.10
2022-09-20T10:49:24.978Z,16.09
2022-09-20T10:52:10.587Z,16.19
2022-09-20T10:54:56.459Z,16.33
2022-09-20T10:57:48.930Z,16.48
2022-09-20T11:00:27.044Z,16.56
2022-09-20T11:03:17.196Z,16.52
2022-09-20T11:05:59.442Z,16.58
2022-09-20T11:08:35.090Z,16.60
2022-09-20T11:11:10.625Z,16.57
2022-09-20T11:13:47.076Z,16.61
2022-09-20T11:16:24.118Z,16.55
2022-09-20T11:19:00.600Z,16.59
2022-09-20T11:21:38.864Z,16.38
2022-09-20T11:24:22.394Z,16.24
2022-09-20T11:26:56.252Z,16.43
2022-09-20T11:29:32.602Z,16.53
2022-09-20T11:32:11.648Z,16.49
2022-09-20T11:34:53.730Z,16.49
2022-09-20T11:37:29.929Z,16.38
2022-09-20T11:40:07.054Z,16.50
2022-09-20T11:42:41.519Z,16.51
2022-09-20T11:45:15.769Z,16.64
2022-09-20T11:47:54.980Z,16.65
2022-09-20T11:51:04.771Z,16.71
2022-09-20T11:53:52.248Z,16.94
2022-09-20T11:56:25.919Z,16.88
2022-09-20T11:58:59.942Z,16.71
2022-09-20T12:01:33.951Z,16.63
2022-09-20T12:04:32.891Z,16.69
2022-09-20T12:07:11.438Z,16.73
2022-09-20T12:09:45.649Z,16.66
2022-09-20T12:12:33.113Z,16.58
2022-09-20T12:15:07.702Z,16.54
2022-09-20T12:17:54.456Z,16.51
2022-09-20T12:21:06.174Z,16.67
2022-09-20T12:24:04.077Z,16.74
2022-09-20T12:26:46.530Z,16.91
2022-09-20T12:29:51.558Z,16.97
2022-09-20T12:32:44.236Z,16.88
2022-09-20T12:36:00.671Z,16.79
2022-09-20T12:38:38.416Z,16.75
2022-09-20T12:41:13.431Z,16.58
2022-09-20T12:44:04.165Z,16.54
2022-09-20T12:46:53.208Z,16.41
2022-09-20T12:49:52.589Z,16.37
2022-09-20T12:53:00.902Z,16.35
2022-09-20T12:55:47.289Z,16.41
2022-09-20T12:58:38.293Z,16.25
2022-09-20T13:01:31.201Z,16.22
2022-09-20T13:04:37.016Z,16.22
2022-09-20T13:07:51.209Z,16.28
2022-09-20T13:10:29.486Z,16.36
2022-09-20T13:13:06.274Z,16.34
2022-09-20T13:15:38.212Z,16.26
2022-09-20T13:18:15.697Z,16.34
2022-09-20T13:20:47.705Z,16.48
2022-09-20T13:23:25.030Z,16.61
2022-09-20T13:25:59.267Z,16.86
2022-09-20T13:28:41.082Z,16.84
2022-09-20T13:31:26.420Z,16.92
2022-09-20T13:34:13.716Z,16.98
2022-09-20T13:36:45.346Z,17.07
2022-09-20T13:39:31.269Z,17.13
2022-09-20T13:42:11.859Z,17.08
2022-09-20T13:44:44.028Z,17.22
2022-09-20T13:47:29.733Z,17.39
2022-09-20T13:50:18.455Z,17.49
2022-09-20T13:52:51.794Z,17.59
2022-09-20T13:55:30.838Z,17.67
2022-09-20T13:58:04.525Z,17.68
2022-09-20T14:00:38.229Z,17.78
2022-09-20T14:03:17.489Z,17.76
2022-09-20T14:05:52.213Z,17.54
2022-09-20T14:08:28.378Z,17.43
2022-09-20T14:11:13.438Z,17.42
2022-09-20T14:13:46.443Z,17.39
2022-09-20T14:16:19.231Z,17.37
2022-09-20T14:18:52.524Z,17.47
2022-09-20T14:21:26.881Z,17.52
2022-09-20T14:24:02.354Z,17.55
2022-09-20T14:26:36.549Z,17.42
2022-09-20T14:29:31.877Z,17.32
2022-09-20T14:32:03.551Z,17.40
2022-09-20T14:34:36.789Z,17.51
2022-09-20T14:37:13.895Z,17.58
2022-09-20T14:39:51.864Z,17.44
2022-09-20T14:42:28.242Z,17.35
2022-09-20T14:45:00.044Z,17.23
2022-09-20T14:47:38.382Z,17.10
2022-09-20T14:50:26.410Z,17.16
2022-09-20T14:53:21.015Z,17.13
2022-09-20T14:56:11.968Z,17.35
2022-09-20T14:59:04.860Z,17.49
2022-09-20T15:01:37.605Z,17.57
2022-09-20T15:04:21.143Z,17.49
2022-09-20T15:06:53.608Z,17.53
2022-09-20T15:09:25.161Z,17.65
2022-09-20T15:12:05.765Z,17.63
2022-09-20T15:14:38.050Z,17.57
2022-09-20T15:17:12.865Z,17.53
2022-09-20T15:19:42.339Z,17.51
2022-09-20T15:22:14.460Z,17.55
2022-09-20T15:24:46.142Z,17.51
2022-09-20T15:27:17.708Z,17.50
2022-09-20T15:29:49.083Z,17.42
2022-09-20T15:32:20.412Z,17.22
2022-09-20T15:34:51.720Z,17.13
2022-09-20T15:37:22.854Z,17.06
2022-09-20T15:39:54.215Z,17.02
2022-09-20T15:42:25.889Z,16.92
2022-09-20T15:44:57.223Z,16.88
2022-09-20T15:47:28.943Z,16.97
2022-09-20T15:50:00.385Z,16.95
2022-09-20T15:52:36.947Z,16.93
2022-09-20T15:55:10.372Z,16.90
2022-09-20T15:57:42.293Z,16.79
2022-09-20T16:00:14.999Z,16.76
2022-09-20T16:02:50.200Z,16.66
2022-09-20T16:05:21.944Z,16.57
2022-09-20T16:07:53.337Z,16.43
2022-09-20T16:10:26.350Z,16.36
2022-09-20T16:12:58.858Z,16.22
2022-09-20T16:15:30.410Z,16.16
2022-09-20T16:18:19.325Z,15.93
2022-09-20T16:20:50.663Z,15.82
2022-09-20T16:23:25.901Z,15.75
2022-09-20T16:25:57.837Z,15.58
2022-09-20T16:28:29.239Z,15.45
2022-09-20T16:31:01.729Z,15.29
2022-09-20T16:33:35.411Z,15.20
2022-09-20T16:36:08.900Z,15.10
2022-09-20T16:38:40.566Z,15.07
2022-09-20T16:41:12.034Z,14.94
2022-09-20T16:43:44.278Z,14.89
2022-09-20T16:46:15.611Z,14.73
2022-09-20T16:48:54.956Z,14.68
2022-09-20T16:51:27.487Z,14.66
2022-09-20T16:53:59.627Z,14.54
2022-09-20T16:56:34.315Z,14.54
2022-09-20T16:59:04.561Z,14.58
2022-09-20T17:01:37.269Z,14.57
2022-09-20T17:04:09.142Z,14.49
2022-09-20T17:06:41.441Z,14.42
2022-09-20T17:09:13.478Z,14.44
2022-09-20T17:11:47.502Z,14.29
2022-09-20T17:14:20.739Z,14.21
2022-09-20T17:16:59.349Z,14.15
2022-09-20T17:19:38.653Z,14.16
2022-09-20T17:22:17.464Z,14.21
2022-09-20T17:24:50.526Z,14.17
2022-09-20T17:27:22.291Z,14.20
2022-09-20T17:29:53.951Z,14.06
2022-09-20T17:32:25.209Z,14.05
2022-09-20T17:34:56.595Z,14.11
2022-09-20T17:37:28.192Z,14.23
2022-09-20T17:40:03.465Z,14.19
2022-09-20T17:42:37.571Z,14.20
2022-09-20T17:45:13.388Z,14.04
2022-09-20T17:47:45.012Z,13.87
2022-09-20T17:50:16.883Z,13.86
2022-09-20T17:52:48.569Z,13.86
2022-09-20T17:55:21.133Z,14.04
2022-09-20T17:57:55.585Z,14.12
2022-09-20T18:00:27.385Z,14.03
2022-09-20T18:03:06.679Z,13.91
2022-09-20T18:05:38.226Z,14.04
2022-09-20T18:08:09.748Z,13.99
2022-09-20T18:10:41.164Z,13.93
2022-09-20T18:13:13.795Z,13.88
2022-09-20T18:15:48.070Z,13.75
2022-09-20T18:18:20.322Z,13.77
2022-09-20T18:20:51.674Z,13.83
2022-09-20T18:23:22.846Z,13.87
2022-09-20T18:26:12.640Z,13.86
2022-09-20T18:28:48.839Z,13.70
2022-09-20T18:31:21.953Z,13.56
2022-09-20T18:34:09.894Z,13.60
2022-09-20T18:36:43.820Z,13.76
2022-09-20T18:39:15.943Z,13.80
2022-09-20T18:41:50.282Z,13.68
2022-09-20T18:44:22.201Z,13.73
2022-09-20T18:46:55.675Z,13.76
2022-09-20T18:49:27.473Z,13.65
2022-09-20T18:52:01.734Z,13.62
2022-09-20T18:54:33.826Z,13.58
2022-09-20T18:57:06.753Z,13.61
2022-09-20T18:59:53.427Z,13.68
2022-09-20T19:02:49.214Z,13.66
2022-09-20T19:05:35.441Z,13.59
2022-09-20T19:08:29.128Z,13.53
2022-09-20T19:11:05.806Z,13.62
2022-09-20T19:13:48.759Z,13.61
2022-09-20T19:16:27.805Z,13.58
2022-09-20T19:19:19.862Z,13.56
2022-09-20T19:22:01.179Z,13.50
2022-09-20T19:24:45.410Z,13.52
2022-09-20T19:27:18.484Z,13.46
2022-09-20T19:29:51.171Z,13.53
2022-09-20T19:32:26.477Z,13.37
2022-09-20T19:35:02.280Z,13.33
2022-09-20T19:37:46.377Z,13.35
2022-09-20T19:40:27.709Z,13.31
2022-09-20T19:43:17.864Z,13.29
2022-09-20T19:45:58.615Z,13.34
2022-09-20T19:48:40.856Z,13.51
2022-09-20T19:51:17.657Z,13.36
2022-09-20T19:53:50.760Z,13.39
2022-09-20T19:56:29.022Z,13.42
2022-09-20T19:59:01.628Z,13.44
2022-09-20T20:01:37.706Z,13.33
2022-09-20T20:04:13.028Z,13.35
2022-09-20T20:06:53.318Z,13.34
2022-09-20T20:09:35.301Z,13.35
2022-09-20T20:12:16.731Z,13.34
2022-09-20T20:14:58.942Z,13.32
2022-09-20T20:17:45.506Z,13.15
2022-09-20T20:20:27.207Z,13.03
2022-09-20T20:23:21.503Z,13.01
2022-09-20T20:26:03.142Z,13.07
2022-09-20T20:28:35.312Z,13.14
2022-09-20T20:31:12.790Z,13.10
2022-09-20T20:33:47.058Z,13.19
2022-09-20T20:36:21.303Z,13.27
2022-09-20T20:38:55.093Z,13.15
2022-09-20T20:41:29.476Z,13.08
2022-09-20T20:44:05.750Z,12.98
2022-09-20T20:46:38.744Z,12.90
2022-09-20T20:49:10.642Z,12.84
2022-09-20T20:51:42.674Z,12.79
2022-09-20T20:54:14.012Z,12.72
2022-09-20T20:56:46.133Z,12.67
2022-09-20T20:59:17.735Z,12.68
2022-09-20T21:01:49.463Z,12.65
2022-09-20T21:04:22.021Z,12.63
2022-09-20T21:06:53.657Z,12.70
2022-09-20T21:09:25.530Z,12.75
2022-09-20T21:11:57.032Z,12.67
2022-09-20T21:14:28.806Z,12.63
2022-09-20T21:17:00.246Z,12.69
2022-09-20T21:19:31.646Z,12.62
2022-09-20T21:22:03.170Z,12.64
2022-09-20T21:24:34.464Z,12.65
2022-09-20T21:27:06.117Z,12.65
2022-09-20T21:29:37.711Z,12.69
2022-09-20T21:32:09.562Z,12.62
2022-09-20T21:34:41.488Z,12.67
2022-09-20T21:37:12.939Z,12.65
2022-09-20T21:39:44.392Z,12.58
2022-09-20T21:42:17.371Z,12.51
2022-09-20T21:44:48.602Z,12.52
2022-09-20T21:47:20.443Z,12.48
2022-09-20T21:49:52.054Z,12.48
2022-09-20T21:52:23.203Z,12.37
2022-09-20T21:54:54.449Z,12.33
2022-09-20T21:57:25.688Z,12.36
2022-09-20T21:59:57.070Z,12.48
2022-09-20T22:02:28.539Z,12.45
2022-09-20T22:05:00.118Z,12.40
2022-09-20T22:07:31.509Z,12.37
2022-09-20T22:10:02.769Z,12.33
2022-09-20T22:12:34.166Z,12.39
2022-09-20T22:15:06.382Z,12.38
2022-09-20T22:17:38.199Z,12.27
2022-09-20T22:20:10.889Z,12.28
2022-09-20T22:25:33.891Z,12.31
2022-09-20T22:28:05.584Z,12.35
2022-09-20T22:30:38.007Z,12.37
2022-09-20T22:33:09.481Z,12.29
2022-09-20T22:35:47.177Z,12.27
2022-09-20T22:38:18.918Z,12.27
2022-09-20T22:40:57.473Z,12.22
2022-09-20T22:43:29.000Z,12.10
2022-09-20T22:46:05.680Z,11.98
2022-09-20T22:48:38.305Z,11.99
2022-09-20T22:51:12.460Z,12.01
2022-09-20T22:53:45.485Z,12.05
2022-09-20T22:56:18.875Z,12.05
2022-09-20T22:58:52.973Z,12.05
2022-09-20T23:01:26.356Z,12.18
2022-09-20T23:03:59.392Z,12.24
2022-09-20T23:06:34.410Z,12.19
2022-09-20T23:09:08.214Z,12.15
2022-09-20T23:11:42.181Z,12.06
2022-09-20T23:14:16.116Z,11.99
2022-09-20T23:16:48.555Z,12.11
2022-09-20T23:19:20.658Z,12.10
2022-09-20T23:21:51.747Z,12.03
2022-09-20T23:24:23.006Z,12.00
2022-09-20T23:26:54.093Z,12.02
2022-09-20T23:29:26.734Z,12.03
2022-09-20T23:31:57.985Z,11.91
2022-09-20T23:34:29.060Z,11.82
2022-09-20T23:40:04.658Z,11.72
2022-09-20T23:42:37.231Z,11.70
2022-09-20T23:45:11.991Z,11.80
2022-09-20T23:47:41.432Z,11.68
2022-09-20T23:50:13.202Z,11.64
2022-09-20T23:52:44.612Z,11.59
2022-09-20T23:55:16.820Z,11.59
2022-09-20T23:57:49.338Z,11.49
